Main page
METAR-TAF:

METAR-TAF

Airports :

Oil platform

Hoorn-a, Netherlands

latitude: 52-55-05N, longitude: 4-09-01E, elevation: 41 m

Current weather observation

The report was made 36 minutes ago, at 01:55 UTC
Wind 18 kt from the Southwest
Temperature 6°C
Humidity 65%
Pressure 1002 hPa
Visibility 10 km or more
Few clouds at a height of 2400 ft
Scattered clouds at a height of 3600 ft

METAR: EHQE 270155Z AUTO 23018KT 9999 FEW024 SCT036 06/M00 Q1002

Time: 03:31 (02:31 UTC)


TAF: missing

Weather observations and forecasts of more than 4000 airports (METAR and TAF reports).

The available stations are represented by yellow and red dots on the map.

Hover mouse over dot to see the name of the station.

Then click to see weather observations and forecasts.

To change the map : click on the green buttons with a black cross to zoom in, on the green button with a dash to zoom out, or on the green arrows for adjacent maps.


METAR-TAF: